sensor_id;sensor_type;location;lat;lon;timestamp;pressure;altitude;pressure_sealevel;temperature;humidity
64841;BME280;51307;52.162;7.560;2023-04-15T00:00:35;100404.28;;;9.05;52.23
64841;BME280;51307;52.162;7.560;2023-04-15T00:03:01;100403.22;;;8.98;52.11
64841;BME280;51307;52.162;7.560;2023-04-15T00:05:30;100409.75;;;8.78;52.47
64841;BME280;51307;52.162;7.560;2023-04-15T00:07:56;100410.13;;;8.83;52.30
64841;BME280;51307;52.162;7.560;2023-04-15T00:10:23;100413.00;;;8.63;52.58
64841;BME280;51307;52.162;7.560;2023-04-15T00:12:49;100409.28;;;8.82;52.26
64841;BME280;51307;52.162;7.560;2023-04-15T00:15:15;100410.09;;;8.74;52.36
64841;BME280;51307;52.162;7.560;2023-04-15T00:17:41;100410.59;;;8.78;52.82
64841;BME280;51307;52.162;7.560;2023-04-15T00:20:07;100410.16;;;8.65;52.79
64841;BME280;51307;52.162;7.560;2023-04-15T00:22:33;100406.00;;;8.62;53.15
64841;BME280;51307;52.162;7.560;2023-04-15T00:24:58;100405.00;;;8.63;53.24
64841;BME280;51307;52.162;7.560;2023-04-15T00:27:24;100408.38;;;8.65;53.28
64841;BME280;51307;52.162;7.560;2023-04-15T00:29:49;100405.16;;;8.88;52.74
64841;BME280;51307;52.162;7.560;2023-04-15T00:32:15;100404.50;;;8.86;52.78
64841;BME280;51307;52.162;7.560;2023-04-15T00:34:41;100410.09;;;8.74;53.23
64841;BME280;51307;52.162;7.560;2023-04-15T00:37:07;100403.75;;;9.02;52.53
64841;BME280;51307;52.162;7.560;2023-04-15T00:39:33;100409.91;;;9.02;52.51
64841;BME280;51307;52.162;7.560;2023-04-15T00:41:58;100410.63;;;9.13;52.38
64841;BME280;51307;52.162;7.560;2023-04-15T00:44:24;100404.88;;;8.73;53.22
64841;BME280;51307;52.162;7.560;2023-04-15T00:46:50;100406.19;;;8.87;52.85
64841;BME280;51307;52.162;7.560;2023-04-15T00:49:16;100412.75;;;8.74;53.26
64841;BME280;51307;52.162;7.560;2023-04-15T00:51:43;100412.53;;;8.68;53.20
64841;BME280;51307;52.162;7.560;2023-04-15T00:54:09;100406.88;;;8.71;53.14
64841;BME280;51307;52.162;7.560;2023-04-15T00:56:36;100408.69;;;8.70;53.12
64841;BME280;51307;52.162;7.560;2023-04-15T00:59:05;100417.13;;;8.84;52.83
64841;BME280;51307;52.162;7.560;2023-04-15T01:01:34;100411.91;;;8.74;52.76
64841;BME280;51307;52.162;7.560;2023-04-15T01:04:00;100402.78;;;8.32;53.94
64841;BME280;51307;52.162;7.560;2023-04-15T01:06:26;100404.75;;;8.48;53.46
64841;BME280;51307;52.162;7.560;2023-04-15T01:08:56;100407.66;;;8.37;53.88
64841;BME280;51307;52.162;7.560;2023-04-15T01:11:22;100409.41;;;8.72;53.01
64841;BME280;51307;52.162;7.560;2023-04-15T01:13:50;100404.41;;;8.51;53.30
64841;BME280;51307;52.162;7.560;2023-04-15T01:16:16;100400.72;;;8.44;53.64
64841;BME280;51307;52.162;7.560;2023-04-15T01:18:42;100400.56;;;8.46;53.95
64841;BME280;51307;52.162;7.560;2023-04-15T01:21:08;100404.91;;;8.47;53.78
64841;BME280;51307;52.162;7.560;2023-04-15T01:23:36;100402.41;;;8.45;53.64
64841;BME280;51307;52.162;7.560;2023-04-15T01:26:06;100404.78;;;8.30;53.94
64841;BME280;51307;52.162;7.560;2023-04-15T01:28:33;100400.06;;;8.24;54.25
64841;BME280;51307;52.162;7.560;2023-04-15T01:31:13;100400.88;;;8.24;53.99
64841;BME280;51307;52.162;7.560;2023-04-15T01:33:40;100405.28;;;8.34;54.15
64841;BME280;51307;52.162;7.560;2023-04-15T01:36:08;100402.94;;;8.31;53.78
64841;BME280;51307;52.162;7.560;2023-04-15T01:38:35;100405.19;;;8.17;54.01
64841;BME280;51307;52.162;7.560;2023-04-15T01:41:01;100410.88;;;8.04;54.34
64841;BME280;51307;52.162;7.560;2023-04-15T01:43:28;100405.56;;;8.04;54.43
64841;BME280;51307;52.162;7.560;2023-04-15T01:45:54;100408.69;;;8.00;54.44
64841;BME280;51307;52.162;7.560;2023-04-15T01:48:21;100406.78;;;8.10;54.32
64841;BME280;51307;52.162;7.560;2023-04-15T01:50:47;100414.63;;;7.94;54.44
64841;BME280;51307;52.162;7.560;2023-04-15T01:53:13;100416.31;;;7.95;54.50
64841;BME280;51307;52.162;7.560;2023-04-15T01:55:38;100409.44;;;7.92;54.59
64841;BME280;51307;52.162;7.560;2023-04-15T01:58:04;100411.19;;;8.01;54.60
64841;BME280;51307;52.162;7.560;2023-04-15T02:00:29;100416.53;;;8.01;54.53
64841;BME280;51307;52.162;7.560;2023-04-15T02:02:57;100418.38;;;8.01;54.89
64841;BME280;51307;52.162;7.560;2023-04-15T02:05:23;100412.19;;;8.00;54.88
64841;BME280;51307;52.162;7.560;2023-04-15T02:07:50;100416.69;;;8.00;54.98
64841;BME280;51307;52.162;7.560;2023-04-15T02:10:15;100416.97;;;8.15;54.88
64841;BME280;51307;52.162;7.560;2023-04-15T02:12:41;100412.41;;;8.07;55.18
64841;BME280;51307;52.162;7.560;2023-04-15T02:15:07;100412.56;;;8.05;55.14
64841;BME280;51307;52.162;7.560;2023-04-15T02:17:34;100417.91;;;7.87;55.47
64841;BME280;51307;52.162;7.560;2023-04-15T02:20:00;100413.16;;;8.17;54.78
64841;BME280;51307;52.162;7.560;2023-04-15T02:22:26;100420.78;;;8.12;55.17
64841;BME280;51307;52.162;7.560;2023-04-15T02:24:52;100413.31;;;7.98;55.50
64841;BME280;51307;52.162;7.560;2023-04-15T02:27:17;100420.47;;;8.33;54.75
64841;BME280;51307;52.162;7.560;2023-04-15T02:29:44;100421.38;;;8.24;54.92
64841;BME280;51307;52.162;7.560;2023-04-15T02:32:10;100417.91;;;8.05;55.54
64841;BME280;51307;52.162;7.560;2023-04-15T02:34:37;100421.94;;;8.28;55.03
64841;BME280;51307;52.162;7.560;2023-04-15T02:37:06;100423.63;;;7.93;55.93
64841;BME280;51307;52.162;7.560;2023-04-15T02:39:31;100432.81;;;7.98;55.78
64841;BME280;51307;52.162;7.560;2023-04-15T02:41:57;100432.81;;;7.98;55.68
64841;BME280;51307;52.162;7.560;2023-04-15T02:44:24;100444.94;;;7.93;56.07
64841;BME280;51307;52.162;7.560;2023-04-15T02:46:49;100441.50;;;8.00;55.89
64841;BME280;51307;52.162;7.560;2023-04-15T02:49:17;100443.69;;;8.23;55.45
64841;BME280;51307;52.162;7.560;2023-04-15T02:51:43;100436.00;;;8.20;55.40
64841;BME280;51307;52.162;7.560;2023-04-15T02:54:12;100446.59;;;8.12;55.79
64841;BME280;51307;52.162;7.560;2023-04-15T02:56:39;100443.31;;;8.00;55.97
64841;BME280;51307;52.162;7.560;2023-04-15T02:59:04;100436.63;;;7.96;56.13
64841;BME280;51307;52.162;7.560;2023-04-15T03:01:30;100440.78;;;7.80;56.65
64841;BME280;51307;52.162;7.560;2023-04-15T03:03:55;100447.06;;;7.71;56.61
64841;BME280;51307;52.162;7.560;2023-04-15T03:06:21;100452.13;;;7.64;56.84
64841;BME280;51307;52.162;7.560;2023-04-15T03:08:46;100453.69;;;7.57;56.77
64841;BME280;51307;52.162;7.560;2023-04-15T03:11:13;100456.22;;;7.58;56.67
64841;BME280;51307;52.162;7.560;2023-04-15T03:13:39;100456.97;;;7.51;56.68
64841;BME280;51307;52.162;7.560;2023-04-15T03:16:06;100457.56;;;7.45;56.69
64841;BME280;51307;52.162;7.560;2023-04-15T03:18:31;100459.56;;;7.33;56.60
64841;BME280;51307;52.162;7.560;2023-04-15T03:20:57;100450.75;;;7.32;56.48
64841;BME280;51307;52.162;7.560;2023-04-15T03:23:22;100448.94;;;7.33;56.59
64841;BME280;51307;52.162;7.560;2023-04-15T03:25:48;100451.50;;;7.24;56.65
64841;BME280;51307;52.162;7.560;2023-04-15T03:28:13;100444.53;;;7.14;56.53
64841;BME280;51307;52.162;7.560;2023-04-15T03:30:39;100454.31;;;7.23;56.38
64841;BME280;51307;52.162;7.560;2023-04-15T03:33:04;100443.66;;;7.23;56.62
64841;BME280;51307;52.162;7.560;2023-04-15T03:35:29;100448.47;;;7.10;57.21
64841;BME280;51307;52.162;7.560;2023-04-15T03:37:55;100443.72;;;7.03;57.52
64841;BME280;51307;52.162;7.560;2023-04-15T03:40:21;100442.91;;;6.93;57.57
64841;BME280;51307;52.162;7.560;2023-04-15T03:42:46;100448.78;;;7.06;57.60
64841;BME280;51307;52.162;7.560;2023-04-15T03:45:12;100447.91;;;7.06;57.19
64841;BME280;51307;52.162;7.560;2023-04-15T03:47:37;100447.91;;;7.06;57.68
64841;BME280;51307;52.162;7.560;2023-04-15T03:50:03;100446.50;;;7.12;57.63
64841;BME280;51307;52.162;7.560;2023-04-15T03:52:29;100447.25;;;7.32;57.62
64841;BME280;51307;52.162;7.560;2023-04-15T03:54:54;100453.03;;;7.27;57.95
64841;BME280;51307;52.162;7.560;2023-04-15T03:57:20;100446.63;;;7.20;58.01
64841;BME280;51307;52.162;7.560;2023-04-15T03:59:45;100447.91;;;7.16;58.10
64841;BME280;51307;52.162;7.560;2023-04-15T04:02:11;100458.28;;;7.37;56.89
64841;BME280;51307;52.162;7.560;2023-04-15T04:04:36;100460.78;;;7.11;57.46
64841;BME280;51307;52.162;7.560;2023-04-15T04:07:02;100459.41;;;7.06;57.76
64841;BME280;51307;52.162;7.560;2023-04-15T04:09:27;100459.28;;;7.36;57.06
64841;BME280;51307;52.162;7.560;2023-04-15T04:11:53;100458.59;;;6.96;57.81
64841;BME280;51307;52.162;7.560;2023-04-15T04:14:18;100465.00;;;7.13;57.80
64841;BME280;51307;52.162;7.560;2023-04-15T04:16:44;100460.97;;;6.99;57.96
64841;BME280;51307;52.162;7.560;2023-04-15T04:19:10;100456.75;;;7.06;57.98
64841;BME280;51307;52.162;7.560;2023-04-15T04:21:35;100459.56;;;6.95;58.10
64841;BME280;51307;52.162;7.560;2023-04-15T04:24:01;100452.97;;;6.99;58.11
64841;BME280;51307;52.162;7.560;2023-04-15T04:26:26;100453.03;;;6.80;58.68
64841;BME280;51307;52.162;7.560;2023-04-15T04:28:52;100459.22;;;6.51;59.50
64841;BME280;51307;52.162;7.560;2023-04-15T04:31:17;100454.13;;;6.87;58.79
64841;BME280;51307;52.162;7.560;2023-04-15T04:33:43;100463.94;;;6.67;59.29
64841;BME280;51307;52.162;7.560;2023-04-15T04:36:08;100464.19;;;6.93;58.63
64841;BME280;51307;52.162;7.560;2023-04-15T04:38:34;100478.38;;;6.64;58.94
64841;BME280;51307;52.162;7.560;2023-04-15T04:41:00;100488.03;;;6.65;59.01
64841;BME280;51307;52.162;7.560;2023-04-15T04:43:25;100479.22;;;6.55;59.45
64841;BME280;51307;52.162;7.560;2023-04-15T04:45:51;100477.81;;;6.70;59.14
64841;BME280;51307;52.162;7.560;2023-04-15T04:48:17;100485.50;;;6.73;59.19
64841;BME280;51307;52.162;7.560;2023-04-15T04:50:43;100473.13;;;6.92;58.66
64841;BME280;51307;52.162;7.560;2023-04-15T04:53:09;100497.00;;;6.74;59.15
64841;BME280;51307;52.162;7.560;2023-04-15T04:55:35;100503.13;;;6.74;59.11
64841;BME280;51307;52.162;7.560;2023-04-15T04:58:03;100504.41;;;6.41;59.98
64841;BME280;51307;52.162;7.560;2023-04-15T05:00:28;100512.34;;;6.80;58.97
64841;BME280;51307;52.162;7.560;2023-04-15T05:02:54;100502.59;;;6.61;59.44
64841;BME280;51307;52.162;7.560;2023-04-15T05:05:20;100507.91;;;6.32;60.27
64841;BME280;51307;52.162;7.560;2023-04-15T05:07:45;100508.75;;;6.52;59.74
64841;BME280;51307;52.162;7.560;2023-04-15T05:10:12;100511.41;;;6.42;60.13
64841;BME280;51307;52.162;7.560;2023-04-15T05:12:38;100511.81;;;6.57;59.93
64841;BME280;51307;52.162;7.560;2023-04-15T05:15:05;100517.16;;;6.57;59.88
64841;BME280;51307;52.162;7.560;2023-04-15T05:17:31;100525.78;;;6.79;59.77
64841;BME280;51307;52.162;7.560;2023-04-15T05:19:57;100525.25;;;6.65;59.64
64841;BME280;51307;52.162;7.560;2023-04-15T05:22:22;100528.63;;;6.67;59.94
64841;BME280;51307;52.162;7.560;2023-04-15T05:24:48;100532.25;;;6.66;60.18
64841;BME280;51307;52.162;7.560;2023-04-15T05:27:14;100536.41;;;6.88;59.60
64841;BME280;51307;52.162;7.560;2023-04-15T05:29:40;100539.81;;;6.61;60.07
64841;BME280;51307;52.162;7.560;2023-04-15T05:32:05;100544.84;;;6.84;59.61
64841;BME280;51307;52.162;7.560;2023-04-15T05:34:31;100547.50;;;6.54;60.49
64841;BME280;51307;52.162;7.560;2023-04-15T05:36:56;100553.94;;;6.42;60.55
64841;BME280;51307;52.162;7.560;2023-04-15T05:39:22;100555.63;;;6.43;61.00
64841;BME280;51307;52.162;7.560;2023-04-15T05:41:47;100556.88;;;6.49;60.80
64841;BME280;51307;52.162;7.560;2023-04-15T05:44:13;100547.94;;;6.60;60.22
64841;BME280;51307;52.162;7.560;2023-04-15T05:46:38;100548.91;;;6.49;61.12
64841;BME280;51307;52.162;7.560;2023-04-15T05:49:04;100555.75;;;6.71;60.28
64841;BME280;51307;52.162;7.560;2023-04-15T05:51:29;100549.31;;;6.73;60.18
64841;BME280;51307;52.162;7.560;2023-04-15T05:53:55;100551.69;;;6.67;60.35
64841;BME280;51307;52.162;7.560;2023-04-15T05:56:21;100547.91;;;6.69;60.56
64841;BME280;51307;52.162;7.560;2023-04-15T05:58:46;100544.81;;;7.03;59.58
64841;BME280;51307;52.162;7.560;2023-04-15T06:01:12;100557.31;;;6.83;60.27
64841;BME280;51307;52.162;7.560;2023-04-15T06:03:37;100558.13;;;7.03;59.58
64841;BME280;51307;52.162;7.560;2023-04-15T06:06:03;100564.53;;;6.91;60.04
64841;BME280;51307;52.162;7.560;2023-04-15T06:08:29;100564.56;;;6.62;60.82
64841;BME280;51307;52.162;7.560;2023-04-15T06:10:55;100566.94;;;6.74;61.07
64841;BME280;51307;52.162;7.560;2023-04-15T06:13:20;100572.53;;;7.11;59.80
64841;BME280;51307;52.162;7.560;2023-04-15T06:15:46;100575.06;;;7.02;60.03
64841;BME280;51307;52.162;7.560;2023-04-15T06:18:11;100578.66;;;7.21;59.74
64841;BME280;51307;52.162;7.560;2023-04-15T06:20:37;100581.91;;;7.15;60.08
64841;BME280;51307;52.162;7.560;2023-04-15T06:23:03;100577.56;;;6.84;60.68
64841;BME280;51307;52.162;7.560;2023-04-15T06:25:28;100583.19;;;7.11;60.24
64841;BME280;51307;52.162;7.560;2023-04-15T06:27:54;100584.97;;;7.30;59.92
64841;BME280;51307;52.162;7.560;2023-04-15T06:30:19;100586.19;;;7.35;60.10
64841;BME280;51307;52.162;7.560;2023-04-15T06:32:45;100594.88;;;7.37;59.95
64841;BME280;51307;52.162;7.560;2023-04-15T06:35:10;100601.38;;;7.25;60.12
64841;BME280;51307;52.162;7.560;2023-04-15T06:37:36;100602.75;;;7.29;59.89
64841;BME280;51307;52.162;7.560;2023-04-15T06:40:01;100595.97;;;7.45;59.90
64841;BME280;51307;52.162;7.560;2023-04-15T06:42:29;100604.38;;;7.50;59.52
64841;BME280;51307;52.162;7.560;2023-04-15T06:44:55;100594.41;;;7.52;59.73
64841;BME280;51307;52.162;7.560;2023-04-15T06:47:20;100604.56;;;7.29;60.32
64841;BME280;51307;52.162;7.560;2023-04-15T06:49:46;100600.78;;;7.31;60.77
64841;BME280;51307;52.162;7.560;2023-04-15T06:52:12;100597.31;;;7.58;60.00
64841;BME280;51307;52.162;7.560;2023-04-15T06:54:37;100603.56;;;7.39;60.66
64841;BME280;51307;52.162;7.560;2023-04-15T06:57:03;100603.88;;;7.27;61.15
64841;BME280;51307;52.162;7.560;2023-04-15T06:59:28;100593.13;;;7.66;60.05
64841;BME280;51307;52.162;7.560;2023-04-15T07:01:54;100608.47;;;7.34;60.66
64841;BME280;51307;52.162;7.560;2023-04-15T07:04:19;100597.31;;;7.68;60.10
64841;BME280;51307;52.162;7.560;2023-04-15T07:06:45;100600.94;;;7.67;60.26
64841;BME280;51307;52.162;7.560;2023-04-15T07:09:10;100606.69;;;7.72;60.21
64841;BME280;51307;52.162;7.560;2023-04-15T07:11:36;100592.91;;;7.77;60.25
64841;BME280;51307;52.162;7.560;2023-04-15T07:14:01;100603.56;;;7.77;60.04
64841;BME280;51307;52.162;7.560;2023-04-15T07:16:28;100602.25;;;7.91;59.64
64841;BME280;51307;52.162;7.560;2023-04-15T07:18:53;100597.56;;;7.75;60.20
64841;BME280;51307;52.162;7.560;2023-04-15T07:21:20;100594.38;;;7.99;59.64
64841;BME280;51307;52.162;7.560;2023-04-15T07:23:45;100604.69;;;7.84;59.87
64841;BME280;51307;52.162;7.560;2023-04-15T07:26:11;100602.34;;;7.99;59.86
64841;BME280;51307;52.162;7.560;2023-04-15T07:28:37;100613.63;;;8.11;59.49
64841;BME280;51307;52.162;7.560;2023-04-15T07:31:02;100603.53;;;8.15;59.21
64841;BME280;51307;52.162;7.560;2023-04-15T07:33:28;100594.84;;;8.13;59.63
64841;BME280;51307;52.162;7.560;2023-04-15T07:35:53;100598.66;;;8.10;59.74
64841;BME280;51307;52.162;7.560;2023-04-15T07:38:19;100602.41;;;8.35;59.00
64841;BME280;51307;52.162;7.560;2023-04-15T07:40:45;100600.44;;;8.19;59.89
64841;BME280;51307;52.162;7.560;2023-04-15T07:43:11;100603.19;;;8.28;59.63
64841;BME280;51307;52.162;7.560;2023-04-15T07:45:37;100604.72;;;8.30;59.30
64841;BME280;51307;52.162;7.560;2023-04-15T07:48:03;100605.00;;;8.27;59.72
64841;BME280;51307;52.162;7.560;2023-04-15T07:50:29;100604.59;;;8.22;59.99
64841;BME280;51307;52.162;7.560;2023-04-15T07:52:54;100611.22;;;8.18;60.06
64841;BME280;51307;52.162;7.560;2023-04-15T07:55:20;100612.59;;;8.22;60.02
64841;BME280;51307;52.162;7.560;2023-04-15T07:57:48;100618.03;;;8.30;59.99
64841;BME280;51307;52.162;7.560;2023-04-15T08:00:14;100624.66;;;8.26;60.31
64841;BME280;51307;52.162;7.560;2023-04-15T08:02:41;100626.41;;;8.35;60.01
64841;BME280;51307;52.162;7.560;2023-04-15T08:05:08;100622.75;;;8.36;60.21
64841;BME280;51307;52.162;7.560;2023-04-15T08:07:33;100616.22;;;8.49;59.77
64841;BME280;51307;52.162;7.560;2023-04-15T08:10:00;100621.31;;;8.42;60.20
64841;BME280;51307;52.162;7.560;2023-04-15T08:12:26;100634.03;;;8.48;60.31
64841;BME280;51307;52.162;7.560;2023-04-15T08:14:51;100627.50;;;8.61;59.81
64841;BME280;51307;52.162;7.560;2023-04-15T08:17:17;100629.78;;;8.55;60.11
64841;BME280;51307;52.162;7.560;2023-04-15T08:19:42;100634.75;;;8.68;59.91
64841;BME280;51307;52.162;7.560;2023-04-15T08:22:09;100633.34;;;8.46;60.75
64841;BME280;51307;52.162;7.560;2023-04-15T08:24:36;100652.25;;;8.53;60.24
64841;BME280;51307;52.162;7.560;2023-04-15T08:27:02;100639.22;;;8.50;60.46
64841;BME280;51307;52.162;7.560;2023-04-15T08:29:28;100641.06;;;8.49;60.35
64841;BME280;51307;52.162;7.560;2023-04-15T08:31:54;100653.44;;;8.68;60.02
64841;BME280;51307;52.162;7.560;2023-04-15T08:34:20;100644.47;;;8.59;60.24
64841;BME280;51307;52.162;7.560;2023-04-15T08:36:45;100639.38;;;8.66;60.29
64841;BME280;51307;52.162;7.560;2023-04-15T08:39:11;100640.69;;;8.62;60.29
64841;BME280;51307;52.162;7.560;2023-04-15T08:41:45;100641.81;;;8.59;60.05
64841;BME280;51307;52.162;7.560;2023-04-15T08:44:14;100641.81;;;8.41;60.68
64841;BME280;51307;52.162;7.560;2023-04-15T08:46:40;100646.91;;;8.35;61.11
64841;BME280;51307;52.162;7.560;2023-04-15T08:49:10;100645.09;;;8.71;60.03
64841;BME280;51307;52.162;7.560;2023-04-15T08:51:38;100649.94;;;8.68;60.23
64841;BME280;51307;52.162;7.560;2023-04-15T08:54:04;100649.06;;;8.67;60.06
64841;BME280;51307;52.162;7.560;2023-04-15T08:56:31;100648.41;;;8.65;60.35
64841;BME280;51307;52.162;7.560;2023-04-15T08:58:58;100657.19;;;7.92;62.32
64841;BME280;51307;52.162;7.560;2023-04-15T09:01:25;100656.72;;;8.06;62.16
64841;BME280;51307;52.162;7.560;2023-04-15T09:03:51;100651.81;;;8.57;60.86
64841;BME280;51307;52.162;7.560;2023-04-15T09:06:20;100662.56;;;8.48;60.78
64841;BME280;51307;52.162;7.560;2023-04-15T09:08:46;100665.47;;;8.27;61.35
64841;BME280;51307;52.162;7.560;2023-04-15T09:11:12;100663.53;;;8.65;60.77
64841;BME280;51307;52.162;7.560;2023-04-15T09:13:38;100662.09;;;8.70;60.25
64841;BME280;51307;52.162;7.560;2023-04-15T09:16:06;100674.16;;;8.74;60.21
64841;BME280;51307;52.162;7.560;2023-04-15T09:18:34;100674.63;;;8.42;61.07
64841;BME280;51307;52.162;7.560;2023-04-15T09:21:08;100675.59;;;8.69;60.17
64841;BME280;51307;52.162;7.560;2023-04-15T09:23:53;100677.44;;;8.68;60.24
64841;BME280;51307;52.162;7.560;2023-04-15T09:26:18;100681.78;;;8.69;60.47
64841;BME280;51307;52.162;7.560;2023-04-15T09:28:44;100687.50;;;8.74;60.32
64841;BME280;51307;52.162;7.560;2023-04-15T09:31:09;100681.88;;;8.78;60.39
64841;BME280;51307;52.162;7.560;2023-04-15T09:33:35;100682.88;;;8.95;59.81
64841;BME280;51307;52.162;7.560;2023-04-15T09:36:18;100697.66;;;8.89;60.19
64841;BME280;51307;52.162;7.560;2023-04-15T09:38:57;100687.75;;;8.81;60.10
64841;BME280;51307;52.162;7.560;2023-04-15T09:41:24;100695.44;;;8.84;59.70
64841;BME280;51307;52.162;7.560;2023-04-15T09:43:50;100690.28;;;9.01;59.54
64841;BME280;51307;52.162;7.560;2023-04-15T09:46:15;100695.00;;;8.89;60.04
64841;BME280;51307;52.162;7.560;2023-04-15T09:48:41;100687.69;;;8.91;60.13
64841;BME280;51307;52.162;7.560;2023-04-15T09:51:06;100696.69;;;8.90;60.34
64841;BME280;51307;52.162;7.560;2023-04-15T09:53:35;100695.38;;;8.94;60.30
64841;BME280;51307;52.162;7.560;2023-04-15T09:56:01;100696.31;;;9.03;60.37
64841;BME280;51307;52.162;7.560;2023-04-15T09:58:32;100701.56;;;8.95;60.60
64841;BME280;51307;52.162;7.560;2023-04-15T10:01:01;100707.09;;;8.83;60.78
64841;BME280;51307;52.162;7.560;2023-04-15T10:03:38;100700.72;;;8.94;60.32
64841;BME280;51307;52.162;7.560;2023-04-15T10:06:06;100696.69;;;8.90;60.74
64841;BME280;51307;52.162;7.560;2023-04-15T10:08:33;100700.72;;;9.12;60.51
64841;BME280;51307;52.162;7.560;2023-04-15T10:11:02;100698.34;;;9.09;60.70
64841;BME280;51307;52.162;7.560;2023-04-15T10:13:30;100711.84;;;9.07;60.52
64841;BME280;51307;52.162;7.560;2023-04-15T10:16:18;100700.28;;;9.17;60.79
64841;BME280;51307;52.162;7.560;2023-04-15T10:18:54;100701.25;;;9.16;61.26
64841;BME280;51307;52.162;7.560;2023-04-15T10:21:21;100701.78;;;9.01;61.85
64841;BME280;51307;52.162;7.560;2023-04-15T10:23:48;100705.28;;;9.20;61.65
64841;BME280;51307;52.162;7.560;2023-04-15T10:26:15;100703.31;;;9.04;62.23
64841;BME280;51307;52.162;7.560;2023-04-15T10:28:43;100713.81;;;9.41;61.28
64841;BME280;51307;52.162;7.560;2023-04-15T10:31:11;100705.13;;;9.39;60.91
64841;BME280;51307;52.162;7.560;2023-04-15T10:33:41;100714.66;;;9.42;60.71
64841;BME280;51307;52.162;7.560;2023-04-15T10:36:07;100728.56;;;9.28;61.30
64841;BME280;51307;52.162;7.560;2023-04-15T10:38:41;100711.41;;;9.30;60.85
64841;BME280;51307;52.162;7.560;2023-04-15T10:41:18;100725.59;;;9.13;62.12
64841;BME280;51307;52.162;7.560;2023-04-15T10:46:17;100717.78;;;9.37;61.28
64841;BME280;51307;52.162;7.560;2023-04-15T10:48:48;100719.09;;;9.33;62.00
64841;BME280;51307;52.162;7.560;2023-04-15T10:51:13;100720.00;;;9.42;61.30
64841;BME280;51307;52.162;7.560;2023-04-15T10:53:41;100711.13;;;9.59;61.38
64841;BME280;51307;52.162;7.560;2023-04-15T10:56:07;100725.22;;;9.70;61.18
64841;BME280;51307;52.162;7.560;2023-04-15T10:58:42;100732.06;;;9.72;61.29
64841;BME280;51307;52.162;7.560;2023-04-15T11:01:08;100734.44;;;9.31;61.50
64841;BME280;51307;52.162;7.560;2023-04-15T11:03:39;100731.38;;;9.26;61.60
64841;BME280;51307;52.162;7.560;2023-04-15T11:06:06;100736.19;;;9.40;61.15
64841;BME280;51307;52.162;7.560;2023-04-15T11:08:55;100735.03;;;9.25;61.79
64841;BME280;51307;52.162;7.560;2023-04-15T11:11:21;100727.88;;;9.43;61.38
64841;BME280;51307;52.162;7.560;2023-04-15T11:13:50;100733.44;;;9.32;62.11
64841;BME280;51307;52.162;7.560;2023-04-15T11:16:19;100734.56;;;9.30;62.62
64841;BME280;51307;52.162;7.560;2023-04-15T11:18:53;100734.72;;;9.46;61.91
64841;BME280;51307;52.162;7.560;2023-04-15T11:21:24;100732.97;;;9.37;62.48
64841;BME280;51307;52.162;7.560;2023-04-15T11:23:50;100746.72;;;9.24;62.70
64841;BME280;51307;52.162;7.560;2023-04-15T11:26:18;100734.19;;;9.42;62.42
64841;BME280;51307;52.162;7.560;2023-04-15T11:28:44;100743.81;;;9.17;63.45
64841;BME280;51307;52.162;7.560;2023-04-15T11:31:17;100746.78;;;9.32;63.03
64841;BME280;51307;52.162;7.560;2023-04-15T11:33:55;100744.25;;;9.31;63.24
64841;BME280;51307;52.162;7.560;2023-04-15T11:36:26;100756.31;;;9.53;62.79
64841;BME280;51307;52.162;7.560;2023-04-15T11:38:52;100749.53;;;9.40;62.51
64841;BME280;51307;52.162;7.560;2023-04-15T11:41:22;100757.22;;;9.25;63.32
64841;BME280;51307;52.162;7.560;2023-04-15T11:43:48;100759.16;;;9.33;63.65
64841;BME280;51307;52.162;7.560;2023-04-15T11:46:13;100767.69;;;9.19;63.33
64841;BME280;51307;52.162;7.560;2023-04-15T11:48:42;100770.97;;;9.49;62.72
64841;BME280;51307;52.162;7.560;2023-04-15T11:51:12;100779.75;;;9.23;63.91
64841;BME280;51307;52.162;7.560;2023-04-15T11:53:44;100769.16;;;9.31;63.91
64841;BME280;51307;52.162;7.560;2023-04-15T11:56:17;100780.41;;;9.43;63.87
64841;BME280;51307;52.162;7.560;2023-04-15T11:58:43;100780.50;;;9.33;63.86
64841;BME280;51307;52.162;7.560;2023-04-15T12:01:10;100784.53;;;9.37;63.72
64841;BME280;51307;52.162;7.560;2023-04-15T12:13:54;100780.13;;;9.46;63.74
64841;BME280;51307;52.162;7.560;2023-04-15T12:16:22;100796.19;;;9.00;64.31
64841;BME280;51307;52.162;7.560;2023-04-15T12:18:53;100782.09;;;9.44;63.66
64841;BME280;51307;52.162;7.560;2023-04-15T12:21:25;100783.78;;;9.45;63.60
64841;BME280;51307;52.162;7.560;2023-04-15T12:23:54;100791.81;;;9.45;63.68
64841;BME280;51307;52.162;7.560;2023-04-15T12:26:53;100792.34;;;9.49;64.38
64841;BME280;51307;52.162;7.560;2023-04-15T12:29:25;100792.09;;;9.60;63.87
64841;BME280;51307;52.162;7.560;2023-04-15T12:31:58;100793.78;;;9.61;63.62
64841;BME280;51307;52.162;7.560;2023-04-15T12:34:30;100804.00;;;9.48;63.65
64841;BME280;51307;52.162;7.560;2023-04-15T12:36:58;100801.13;;;9.23;65.26
64841;BME280;51307;52.162;7.560;2023-04-15T12:39:25;100803.72;;;9.33;64.56
64841;BME280;51307;52.162;7.560;2023-04-15T12:41:51;100809.13;;;9.41;63.75
64841;BME280;51307;52.162;7.560;2023-04-15T12:44:17;100818.13;;;9.40;63.94
64841;BME280;51307;52.162;7.560;2023-04-15T12:46:44;100820.66;;;9.59;63.41
64841;BME280;51307;52.162;7.560;2023-04-15T12:49:10;100819.56;;;9.52;63.23
64841;BME280;51307;52.162;7.560;2023-04-15T12:51:36;100828.50;;;9.43;63.58
64841;BME280;51307;52.162;7.560;2023-04-15T12:54:01;100823.47;;;9.40;63.71
64841;BME280;51307;52.162;7.560;2023-04-15T12:56:27;100823.53;;;9.30;64.34
64841;BME280;51307;52.162;7.560;2023-04-15T12:58:53;100824.00;;;9.43;63.96
64841;BME280;51307;52.162;7.560;2023-04-15T13:01:18;100830.19;;;9.44;64.01
64841;BME280;51307;52.162;7.560;2023-04-15T13:03:44;100839.41;;;9.50;64.24
64841;BME280;51307;52.162;7.560;2023-04-15T13:06:10;100832.59;;;9.19;65.20
64841;BME280;51307;52.162;7.560;2023-04-15T13:08:38;100829.41;;;9.52;64.25
64841;BME280;51307;52.162;7.560;2023-04-15T13:11:04;100836.06;;;9.48;64.58